createdAt,value
2023-05-08T00:00:15.369Z,101320.78
2023-05-08T00:02:42.953Z,101326.69
2023-05-08T00:05:10.155Z,101328.56
2023-05-08T00:07:38.020Z,101325.66
2023-05-08T00:10:06.521Z,101323.41
2023-05-08T00:12:33.720Z,101336.41
2023-05-08T00:15:01.238Z,101313.97
2023-05-08T00:17:33.239Z,101335.50
2023-05-08T00:20:00.810Z,101338.88
2023-05-08T00:22:28.159Z,101336.13
2023-05-08T00:24:55.215Z,101347.28
2023-05-08T00:27:22.259Z,101343.38
2023-05-08T00:29:50.368Z,101343.75
2023-05-08T00:32:17.596Z,101346.13
2023-05-08T00:34:44.811Z,101343.97
2023-05-08T00:37:11.954Z,101342.94
2023-05-08T00:39:39.160Z,101354.09
2023-05-08T00:42:06.382Z,101356.66
2023-05-08T00:44:33.536Z,101349.66
2023-05-08T00:47:00.867Z,101353.13
2023-05-08T00:49:28.505Z,101352.19
2023-05-08T00:51:56.914Z,101352.75
2023-05-08T00:54:24.281Z,101340.59
2023-05-08T00:56:53.284Z,101351.06
2023-05-08T00:59:22.820Z,101357.56
2023-05-08T01:01:50.988Z,101355.41
2023-05-08T01:04:21.361Z,101342.03
2023-05-08T01:06:50.070Z,101354.38
2023-05-08T01:09:17.952Z,101351.75
2023-05-08T01:11:55.739Z,101361.50
2023-05-08T01:14:44.503Z,101348.44
2023-05-08T01:17:39.305Z,101358.06
2023-05-08T01:20:18.123Z,101365.06
2023-05-08T01:23:06.671Z,101355.88
2023-05-08T01:26:11.938Z,101367.63
2023-05-08T01:29:23.972Z,101365.19
2023-05-08T01:32:19.475Z,101376.41
2023-05-08T01:35:11.033Z,101374.72
2023-05-08T01:37:40.829Z,101379.34
2023-05-08T01:40:18.824Z,101377.88
2023-05-08T01:42:51.027Z,101377.88
2023-05-08T01:45:40.703Z,101377.56
2023-05-08T01:48:12.224Z,101383.63
2023-05-08T01:50:48.766Z,101384.28
2023-05-08T01:53:28.724Z,101385.13
2023-05-08T01:56:03.626Z,101376.88
2023-05-08T01:58:33.100Z,101372.63
2023-05-08T02:01:02.759Z,101364.66
2023-05-08T02:03:32.433Z,101394.91
2023-05-08T02:06:01.583Z,101391.50
2023-05-08T02:08:32.085Z,101391.56
2023-05-08T02:11:01.845Z,101385.22
2023-05-08T02:13:32.157Z,101392.59
2023-05-08T02:16:01.473Z,101382.13
2023-05-08T02:18:32.172Z,101388.06
2023-05-08T02:21:01.399Z,101383.84
2023-05-08T02:23:50.395Z,101383.00
2023-05-08T02:26:19.054Z,101371.56
2023-05-08T02:28:47.157Z,101395.66
2023-05-08T02:31:14.702Z,101386.03
2023-05-08T02:33:44.208Z,101393.44
2023-05-08T02:36:15.895Z,101395.22
2023-05-08T02:38:46.430Z,101394.88
2023-05-08T02:41:15.665Z,101397.47
2023-05-08T02:43:43.781Z,101397.22
2023-05-08T02:46:20.002Z,101398.66
2023-05-08T02:49:13.009Z,101403.16
2023-05-08T02:51:51.571Z,101396.78
2023-05-08T02:54:47.236Z,101407.66
2023-05-08T02:57:29.352Z,101413.72
2023-05-08T03:00:03.923Z,101404.19
2023-05-08T03:02:48.392Z,101425.91
2023-05-08T03:05:35.353Z,101415.53
2023-05-08T03:08:14.044Z,101429.91
2023-05-08T03:10:45.907Z,101418.91
2023-05-08T03:13:15.206Z,101430.03
2023-05-08T03:15:45.778Z,101433.09
2023-05-08T03:18:22.001Z,101435.06
2023-05-08T03:20:52.958Z,101430.72
2023-05-08T03:23:23.769Z,101419.09
2023-05-08T03:25:52.840Z,101439.38
2023-05-08T03:28:22.109Z,101432.94
2023-05-08T03:30:51.251Z,101444.78
2023-05-08T03:33:19.549Z,101448.50
2023-05-08T03:35:47.863Z,101448.84
2023-05-08T03:38:15.351Z,101451.44
2023-05-08T03:40:42.978Z,101457.06
2023-05-08T03:43:12.103Z,101455.88
2023-05-08T03:45:41.067Z,101454.47
2023-05-08T03:48:09.749Z,101457.22
2023-05-08T03:50:38.809Z,101457.97
2023-05-08T03:53:09.372Z,101457.03
2023-05-08T03:55:37.263Z,101465.63
2023-05-08T03:58:26.649Z,101454.06
2023-05-08T04:01:04.351Z,101462.09
2023-05-08T04:03:54.164Z,101463.69
2023-05-08T04:06:50.816Z,101464.66
2023-05-08T04:09:34.785Z,101449.00
2023-05-08T04:12:26.421Z,101461.59
2023-05-08T04:15:00.913Z,101459.25
2023-05-08T04:17:42.743Z,101466.44
2023-05-08T04:20:16.810Z,101466.09
2023-05-08T04:22:46.818Z,101464.91
2023-05-08T04:25:16.594Z,101456.56
2023-05-08T04:27:45.645Z,101463.34
2023-05-08T04:30:13.610Z,101465.81
2023-05-08T04:32:45.485Z,101457.22
2023-05-08T04:35:14.767Z,101456.84
2023-05-08T04:37:45.601Z,101454.00
2023-05-08T04:40:13.701Z,101461.47
2023-05-08T04:42:43.687Z,101462.41
2023-05-08T04:45:11.465Z,101466.13
2023-05-08T04:47:39.833Z,101456.28
2023-05-08T04:50:07.432Z,101464.09
2023-05-08T04:52:35.779Z,101438.97
2023-05-08T04:55:03.120Z,101468.81
2023-05-08T04:57:33.909Z,101461.81
2023-05-08T05:00:01.161Z,101447.16
2023-05-08T05:02:35.895Z,101466.31
2023-05-08T05:05:04.112Z,101467.25
2023-05-08T05:07:34.249Z,101465.56
2023-05-08T05:10:01.570Z,101468.25
2023-05-08T05:12:33.901Z,101478.78
2023-05-08T05:15:01.866Z,101465.84
2023-05-08T05:17:35.521Z,101490.47
2023-05-08T05:20:03.366Z,101463.50
2023-05-08T05:22:35.134Z,101484.28
2023-05-08T05:25:02.650Z,101484.19
2023-05-08T05:27:34.707Z,101489.66
2023-05-08T05:30:01.913Z,101486.00
2023-05-08T05:32:33.238Z,101483.00
2023-05-08T05:35:00.973Z,101479.53
2023-05-08T05:37:31.812Z,101490.22
2023-05-08T05:39:59.310Z,101495.09
2023-05-08T05:42:26.515Z,101482.44
2023-05-08T05:44:56.839Z,101494.31
2023-05-08T05:47:24.138Z,101492.81
2023-05-08T05:49:51.699Z,101487.94
2023-05-08T05:52:18.811Z,101482.69
2023-05-08T05:54:46.774Z,101476.09
2023-05-08T05:57:14.211Z,101466.88
2023-05-08T05:59:42.106Z,101472.75
2023-05-08T06:02:10.670Z,101479.09
2023-05-08T06:04:38.758Z,101471.47
2023-05-08T06:07:07.414Z,101480.72
2023-05-08T06:09:34.598Z,101482.69
2023-05-08T06:12:02.053Z,101487.69
2023-05-08T06:14:30.371Z,101483.94
2023-05-08T06:16:58.008Z,101491.56
2023-05-08T06:19:25.297Z,101480.25
2023-05-08T06:21:52.492Z,101466.75
2023-05-08T06:24:19.784Z,101466.63
2023-05-08T06:26:47.047Z,101486.38
2023-05-08T06:29:14.340Z,101481.25
2023-05-08T06:31:41.422Z,101477.22
2023-05-08T06:34:09.288Z,101487.69
2023-05-08T06:36:36.778Z,101479.91
2023-05-08T06:39:07.550Z,101483.75
2023-05-08T06:41:34.706Z,101480.97
2023-05-08T06:44:01.824Z,101479.84
2023-05-08T06:46:30.038Z,101471.25
2023-05-08T06:48:57.203Z,101460.13
2023-05-08T06:51:24.311Z,101470.16
2023-05-08T06:53:51.437Z,101473.44
2023-05-08T06:56:18.559Z,101461.00
2023-05-08T06:58:53.716Z,101476.81
2023-05-08T07:01:31.902Z,101462.28
2023-05-08T07:03:59.270Z,101463.94
2023-05-08T07:06:27.629Z,101451.38
2023-05-08T07:08:54.800Z,101462.16
2023-05-08T07:11:22.175Z,101467.81
2023-05-08T07:13:49.343Z,101458.16
2023-05-08T07:16:16.685Z,101454.44
2023-05-08T07:18:44.256Z,101447.84
2023-05-08T07:21:11.418Z,101449.19
2023-05-08T07:23:38.592Z,101452.28
2023-05-08T07:26:05.718Z,101444.41
2023-05-08T07:28:32.789Z,101449.03
2023-05-08T07:30:59.898Z,101446.34
2023-05-08T07:33:27.044Z,101448.41
2023-05-08T07:35:54.307Z,101446.28
2023-05-08T07:38:21.424Z,101441.88
2023-05-08T07:40:49.172Z,101457.38
2023-05-08T07:43:16.356Z,101453.91
2023-05-08T07:45:43.495Z,101458.00
2023-05-08T07:48:11.974Z,101458.78
2023-05-08T07:50:39.130Z,101454.75
2023-05-08T07:53:06.459Z,101450.34
2023-05-08T07:55:33.731Z,101445.75
2023-05-08T07:58:00.889Z,101440.22
2023-05-08T08:00:29.679Z,101446.78
2023-05-08T08:02:57.577Z,101445.16
2023-05-08T08:05:24.951Z,101436.38
2023-05-08T08:07:52.136Z,101438.84
2023-05-08T08:10:19.500Z,101420.75
2023-05-08T08:12:47.748Z,101426.03
2023-05-08T08:15:15.127Z,101439.44
2023-05-08T08:17:42.491Z,101440.34
2023-05-08T08:20:10.036Z,101440.53
2023-05-08T08:22:38.012Z,101442.00
2023-05-08T08:25:05.440Z,101441.72
2023-05-08T08:27:32.620Z,101439.56
2023-05-08T08:30:15.117Z,101441.06
2023-05-08T08:32:45.027Z,101440.88
2023-05-08T08:35:35.344Z,101436.81
2023-05-08T08:38:02.591Z,101430.19
2023-05-08T08:40:29.685Z,101417.09
2023-05-08T08:42:56.822Z,101421.31
2023-05-08T08:45:26.115Z,101422.19
2023-05-08T08:47:53.761Z,101416.97
2023-05-08T08:50:27.315Z,101419.19
2023-05-08T08:53:03.858Z,101408.22
2023-05-08T08:55:32.797Z,101408.66
2023-05-08T08:58:12.730Z,101411.88
2023-05-08T09:00:40.445Z,101404.16
2023-05-08T09:03:08.012Z,101426.94
2023-05-08T09:05:36.464Z,101435.91
2023-05-08T09:08:05.713Z,101422.69
2023-05-08T09:10:34.924Z,101426.03
2023-05-08T09:13:03.879Z,101411.09
2023-05-08T09:15:34.890Z,101434.16
2023-05-08T09:18:02.923Z,101432.31
2023-05-08T09:20:30.813Z,101435.06
2023-05-08T09:23:01.247Z,101429.56
2023-05-08T09:25:44.613Z,101431.41
2023-05-08T09:28:18.788Z,101438.72
2023-05-08T09:30:51.506Z,101432.44
2023-05-08T09:33:19.101Z,101428.84
2023-05-08T09:35:48.663Z,101415.63
2023-05-08T09:38:42.105Z,101427.13
2023-05-08T09:41:11.561Z,101433.81
2023-05-08T09:43:39.601Z,101427.47
2023-05-08T09:46:23.501Z,101427.44
2023-05-08T09:48:52.783Z,101425.81
2023-05-08T09:51:20.342Z,101420.00
2023-05-08T09:53:50.020Z,101419.75
2023-05-08T09:56:17.156Z,101415.47
2023-05-08T09:58:45.007Z,101396.53
2023-05-08T10:01:36.932Z,101404.34
2023-05-08T10:04:06.163Z,101412.59
2023-05-08T10:06:34.007Z,101407.91
2023-05-08T10:09:07.689Z,101399.16
2023-05-08T10:11:34.875Z,101406.34
2023-05-08T10:14:02.039Z,101407.75
2023-05-08T10:16:30.107Z,101406.75
2023-05-08T10:19:06.024Z,101403.56
2023-05-08T10:21:37.772Z,101389.63
2023-05-08T10:24:15.503Z,101381.59
2023-05-08T10:26:57.189Z,101396.06
2023-05-08T10:29:41.468Z,101392.09
2023-05-08T10:32:10.855Z,101397.63
2023-05-08T10:34:42.240Z,101405.09
2023-05-08T10:37:13.317Z,101394.03
2023-05-08T10:39:41.922Z,101386.84
2023-05-08T10:42:09.203Z,101395.09
2023-05-08T10:44:37.037Z,101387.53
2023-05-08T10:47:21.999Z,101400.34
2023-05-08T10:50:24.642Z,101391.16
2023-05-08T10:53:14.021Z,101401.75
2023-05-08T10:55:45.737Z,101390.47
2023-05-08T10:58:32.888Z,101369.09
2023-05-08T11:01:00.594Z,101385.22
2023-05-08T11:03:32.776Z,101379.69
2023-05-08T11:06:02.001Z,101387.78
2023-05-08T11:08:30.658Z,101376.69
2023-05-08T11:11:05.190Z,101389.50
2023-05-08T11:13:41.480Z,101391.41
2023-05-08T11:16:11.284Z,101392.91
2023-05-08T11:18:48.964Z,101391.56
2023-05-08T11:21:24.121Z,101395.63
2023-05-08T11:24:00.669Z,101384.41
2023-05-08T11:26:43.152Z,101383.34
2023-05-08T11:29:17.810Z,101392.53
2023-05-08T11:31:52.559Z,101390.78
2023-05-08T11:34:44.381Z,101377.03
2023-05-08T11:37:17.285Z,101381.88
2023-05-08T11:39:44.579Z,101374.19
2023-05-08T11:42:29.682Z,101368.75
2023-05-08T11:45:11.087Z,101375.28
2023-05-08T11:47:47.436Z,101371.25
2023-05-08T11:50:14.728Z,101371.63
2023-05-08T11:52:43.537Z,101364.88
2023-05-08T11:55:13.205Z,101367.78
2023-05-08T11:57:40.437Z,101375.94
2023-05-08T12:00:10.174Z,101362.28
2023-05-08T12:02:43.678Z,101365.28
2023-05-08T12:05:11.606Z,101372.66
2023-05-08T12:07:46.851Z,101370.16
2023-05-08T12:10:16.109Z,101374.03
2023-05-08T12:12:45.551Z,101372.19
2023-05-08T12:15:15.373Z,101370.06
2023-05-08T12:17:43.233Z,101361.84
2023-05-08T12:20:18.832Z,101359.88
2023-05-08T12:22:53.218Z,101354.13
2023-05-08T12:25:20.855Z,101360.00
2023-05-08T12:27:48.199Z,101368.72
2023-05-08T12:30:16.856Z,101370.81
2023-05-08T12:32:44.924Z,101370.59
2023-05-08T12:35:14.092Z,101370.44
2023-05-08T12:37:41.238Z,101350.78
2023-05-08T12:40:25.210Z,101360.63
2023-05-08T12:42:52.717Z,101353.56
2023-05-08T12:45:31.107Z,101353.16
2023-05-08T12:48:09.587Z,101356.50
2023-05-08T12:50:38.808Z,101357.69
2023-05-08T12:53:10.784Z,101349.94
2023-05-08T12:55:39.886Z,101332.47
2023-05-08T12:58:15.686Z,101323.25
2023-05-08T13:00:48.579Z,101331.94
2023-05-08T13:03:26.998Z,101335.44
2023-05-08T13:05:56.526Z,101335.84
2023-05-08T13:08:54.057Z,101335.56
2023-05-08T13:11:34.503Z,101335.56
2023-05-08T13:14:01.770Z,101322.47
2023-05-08T13:16:29.194Z,101323.84
2023-05-08T13:18:56.418Z,101305.88
2023-05-08T13:21:25.099Z,101318.00
2023-05-08T13:23:54.130Z,101318.28
2023-05-08T13:26:21.728Z,101321.63
2023-05-08T13:28:48.809Z,101308.63
2023-05-08T13:31:15.926Z,101325.00
2023-05-08T13:33:43.109Z,101321.22
2023-05-08T13:36:10.386Z,101309.81
2023-05-08T13:38:37.483Z,101318.13
2023-05-08T13:41:04.681Z,101323.72
2023-05-08T13:43:31.939Z,101321.53
2023-05-08T13:45:59.209Z,101322.28
2023-05-08T13:48:26.313Z,101328.81
2023-05-08T13:50:56.544Z,101329.56
2023-05-08T13:53:23.760Z,101317.00
2023-05-08T13:55:51.233Z,101325.44
2023-05-08T13:58:18.392Z,101328.22
2023-05-08T14:00:45.579Z,101319.44
2023-05-08T14:03:12.793Z,101323.59
2023-05-08T14:05:40.005Z,101324.63
2023-05-08T14:08:07.103Z,101325.50
2023-05-08T14:10:34.364Z,101303.66
2023-05-08T14:13:01.472Z,101319.03
2023-05-08T14:15:36.581Z,101322.97
2023-05-08T14:18:04.416Z,101314.91
2023-05-08T14:20:31.616Z,101311.84
2023-05-08T14:23:00.182Z,101322.44
2023-05-08T14:25:27.543Z,101316.47
2023-05-08T14:27:54.691Z,101316.31
2023-05-08T14:30:21.810Z,101315.34
2023-05-08T14:32:49.024Z,101319.13
2023-05-08T14:35:16.489Z,101325.19
2023-05-08T14:37:43.686Z,101311.84
2023-05-08T14:40:10.937Z,101311.81
2023-05-08T14:42:38.660Z,101321.09
2023-05-08T14:45:06.434Z,101288.94
2023-05-08T14:47:34.640Z,101316.28
2023-05-08T14:50:02.023Z,101309.63
2023-05-08T14:52:30.816Z,101310.50
2023-05-08T14:54:58.811Z,101309.53
2023-05-08T14:57:26.205Z,101305.22
2023-05-08T14:59:55.750Z,101305.72
2023-05-08T15:02:24.170Z,101307.97
2023-05-08T15:04:51.507Z,101299.88
2023-05-08T15:07:18.684Z,101293.72
2023-05-08T15:09:45.884Z,101293.16
2023-05-08T15:12:12.983Z,101294.31
2023-05-08T15:14:40.127Z,101290.06
2023-05-08T15:17:07.280Z,101274.78
2023-05-08T15:19:34.381Z,101304.00
2023-05-08T15:22:01.477Z,101299.84
2023-05-08T15:24:28.745Z,101299.28
2023-05-08T15:26:55.991Z,101307.03
2023-05-08T15:29:23.220Z,101296.59
2023-05-08T15:31:51.498Z,101300.66
2023-05-08T15:34:18.695Z,101296.44
2023-05-08T15:36:45.890Z,101289.78
2023-05-08T15:39:13.232Z,101282.13
2023-05-08T15:41:41.405Z,101305.44
2023-05-08T15:44:08.562Z,101305.53
2023-05-08T15:46:35.785Z,101301.53
2023-05-08T15:49:03.332Z,101304.06
2023-05-08T15:51:30.751Z,101292.25
2023-05-08T15:53:58.292Z,101286.81
2023-05-08T15:56:25.948Z,101290.28
2023-05-08T15:58:53.619Z,101292.63
2023-05-08T16:01:21.039Z,101297.03
2023-05-08T16:03:48.437Z,101289.41
2023-05-08T16:06:16.352Z,101292.88
2023-05-08T16:08:44.122Z,101287.75
2023-05-08T16:11:11.407Z,101280.06
2023-05-08T16:13:38.532Z,101272.41
2023-05-08T16:16:06.375Z,101284.66
2023-05-08T16:18:33.731Z,101289.19
2023-05-08T16:21:01.375Z,101291.28
2023-05-08T16:23:28.541Z,101262.31
2023-05-08T16:25:55.627Z,101289.78
2023-05-08T16:28:22.807Z,101290.59
2023-05-08T16:30:49.923Z,101286.88
2023-05-08T16:33:17.085Z,101292.34
2023-05-08T16:35:44.205Z,101301.16
2023-05-08T16:38:11.412Z,101288.19
2023-05-08T16:40:38.766Z,101299.28
2023-05-08T16:43:05.965Z,101306.50
2023-05-08T16:45:34.554Z,101308.44
2023-05-08T16:48:02.742Z,101305.34
2023-05-08T16:50:30.142Z,101307.31
2023-05-08T16:52:57.782Z,101301.06
2023-05-08T16:55:25.040Z,101319.66
2023-05-08T16:57:53.879Z,101313.63
2023-05-08T17:00:21.526Z,101318.19
2023-05-08T17:02:48.794Z,101314.59
2023-05-08T17:05:16.153Z,101316.75
2023-05-08T17:07:43.420Z,101315.78
2023-05-08T17:10:10.901Z,101329.63
2023-05-08T17:12:38.149Z,101328.41
2023-05-08T17:15:05.791Z,101304.78
2023-05-08T17:17:33.334Z,101306.41
2023-05-08T17:20:00.411Z,101331.38
2023-05-08T17:22:27.557Z,101334.16
2023-05-08T17:24:54.877Z,101341.03
2023-05-08T17:27:22.128Z,101335.13
2023-05-08T17:29:49.307Z,101327.88
2023-05-08T17:32:16.386Z,101317.50
2023-05-08T17:34:43.580Z,101341.97
2023-05-08T17:37:10.753Z,101338.97
2023-05-08T17:39:37.826Z,101354.25
2023-05-08T17:42:05.097Z,101350.16
2023-05-08T17:44:32.207Z,101349.72
2023-05-08T17:46:59.392Z,101341.91
2023-05-08T17:49:26.543Z,101349.34
2023-05-08T17:51:53.693Z,101356.91
2023-05-08T17:54:20.861Z,101356.56
2023-05-08T17:56:48.689Z,101351.16
2023-05-08T17:59:15.949Z,101362.91
2023-05-08T18:01:43.103Z,101362.91
2023-05-08T18:04:10.262Z,101340.72
2023-05-08T18:06:37.521Z,101367.91
2023-05-08T18:09:05.644Z,101354.97
2023-05-08T18:11:32.880Z,101363.25
2023-05-08T18:13:59.989Z,101361.94
2023-05-08T18:16:27.291Z,101360.97
2023-05-08T18:18:54.523Z,101368.88
2023-05-08T18:21:21.716Z,101361.63
2023-05-08T18:23:48.815Z,101368.34
2023-05-08T18:26:17.199Z,101377.84
2023-05-08T18:28:44.816Z,101372.94
2023-05-08T18:31:13.482Z,101361.69
2023-05-08T18:33:40.619Z,101379.75
2023-05-08T18:36:07.820Z,101376.09
2023-05-08T18:38:35.031Z,101369.19
2023-05-08T18:41:03.522Z,101368.91
2023-05-08T18:43:30.855Z,101373.09
2023-05-08T18:45:59.192Z,101371.81
2023-05-08T18:48:27.435Z,101367.13
2023-05-08T18:50:58.712Z,101384.56
2023-05-08T18:53:26.257Z,101377.09
2023-05-08T18:55:53.464Z,101386.09
2023-05-08T18:58:20.779Z,101386.53
2023-05-08T19:00:48.213Z,101384.13
2023-05-08T19:03:15.621Z,101373.81
2023-05-08T19:05:44.073Z,101378.47
2023-05-08T19:08:11.217Z,101364.63
2023-05-08T19:10:38.272Z,101391.81
2023-05-08T19:13:05.551Z,101378.66
2023-05-08T19:15:32.839Z,101374.91
2023-05-08T19:18:01.873Z,101390.28
2023-05-08T19:20:29.245Z,101396.66
2023-05-08T19:22:56.303Z,101377.75
2023-05-08T19:25:23.558Z,101382.78
2023-05-08T19:27:50.707Z,101389.31
2023-05-08T19:30:17.943Z,101395.22
2023-05-08T19:32:45.076Z,101395.13
2023-05-08T19:35:12.400Z,101402.78
2023-05-08T19:37:39.630Z,101396.06
2023-05-08T19:40:07.550Z,101391.66
2023-05-08T19:42:34.676Z,101397.97
2023-05-08T19:45:01.804Z,101400.94
2023-05-08T19:47:33.555Z,101403.00
2023-05-08T19:50:00.675Z,101406.34
2023-05-08T19:52:27.720Z,101391.22
2023-05-08T19:54:54.759Z,101398.41
2023-05-08T19:57:22.011Z,101402.34
2023-05-08T19:59:49.128Z,101401.84
2023-05-08T20:02:18.818Z,101394.69
2023-05-08T20:05:14.497Z,101400.91
2023-05-08T20:07:34.722Z,101394.41
2023-05-08T20:10:02.033Z,101403.44
2023-05-08T20:12:32.627Z,101404.16
2023-05-08T20:15:01.962Z,101400.69
2023-05-08T20:17:31.278Z,101409.53
2023-05-08T20:19:58.561Z,101408.50
2023-05-08T20:22:25.769Z,101409.63
2023-05-08T20:24:52.986Z,101416.44
2023-05-08T20:27:20.127Z,101415.41
2023-05-08T20:29:47.397Z,101414.75
2023-05-08T20:32:16.453Z,101414.16
2023-05-08T20:34:44.596Z,101400.06
2023-05-08T20:37:11.777Z,101412.59
2023-05-08T20:39:39.016Z,101403.75
2023-05-08T20:42:06.171Z,101404.09
2023-05-08T20:44:33.352Z,101416.16
2023-05-08T20:47:00.449Z,101413.81
2023-05-08T20:49:27.819Z,101411.63
2023-05-08T20:51:54.876Z,101415.81
2023-05-08T20:54:22.093Z,101419.19
2023-05-08T20:56:49.300Z,101415.59
2023-05-08T20:59:16.806Z,101416.22
2023-05-08T21:01:43.991Z,101419.59
2023-05-08T21:04:11.178Z,101413.19
2023-05-08T21:06:38.421Z,101407.94
2023-05-08T21:09:07.084Z,101418.66
2023-05-08T21:11:34.740Z,101413.50
2023-05-08T21:14:01.899Z,101413.16
2023-05-08T21:16:29.085Z,101422.50
2023-05-08T21:18:58.366Z,101418.75
2023-05-08T21:21:25.845Z,101418.94
2023-05-08T21:23:53.475Z,101419.13
2023-05-08T21:26:23.720Z,101418.06
2023-05-08T21:28:52.711Z,101418.66
2023-05-08T21:31:20.691Z,101427.03
2023-05-08T21:33:47.949Z,101427.50
2023-05-08T21:36:15.182Z,101422.25
2023-05-08T21:38:42.328Z,101415.91
2023-05-08T21:41:09.748Z,101423.63
2023-05-08T21:43:37.150Z,101427.59
2023-05-08T21:46:05.787Z,101424.75
2023-05-08T21:48:34.229Z,101427.19
2023-05-08T21:51:01.952Z,101418.56
2023-05-08T21:53:29.250Z,101427.94
2023-05-08T21:55:56.484Z,101422.53
2023-05-08T21:58:23.590Z,101417.56
2023-05-08T22:00:50.797Z,101424.00
2023-05-08T22:03:18.677Z,101418.75
2023-05-08T22:05:46.054Z,101425.91
2023-05-08T22:08:13.376Z,101424.00
2023-05-08T22:10:40.724Z,101413.72
2023-05-08T22:13:08.036Z,101421.50
2023-05-08T22:15:35.328Z,101412.03
2023-05-08T22:18:02.922Z,101420.00
2023-05-08T22:20:30.937Z,101419.56
2023-05-08T22:22:58.255Z,101426.50
2023-05-08T22:25:26.886Z,101427.34
2023-05-08T22:27:54.406Z,101423.22
2023-05-08T22:30:21.768Z,101427.66
2023-05-08T22:32:54.652Z,101432.72
2023-05-08T22:35:27.787Z,101441.72
2023-05-08T22:37:57.383Z,101430.84
2023-05-08T22:40:24.898Z,101439.63
2023-05-08T22:42:53.626Z,101428.41
2023-05-08T22:45:20.943Z,101438.31
2023-05-08T22:47:48.461Z,101424.50
2023-05-08T22:50:17.297Z,101432.16
2023-05-08T22:52:44.849Z,101435.53
2023-05-08T22:55:12.634Z,101439.38
2023-05-08T22:57:39.909Z,101436.84
2023-05-08T23:00:07.831Z,101432.16
2023-05-08T23:02:35.883Z,101433.50
2023-05-08T23:05:03.986Z,101437.03
2023-05-08T23:07:33.378Z,101431.50
2023-05-08T23:10:00.802Z,101433.06
2023-05-08T23:12:28.260Z,101437.59
2023-05-08T23:14:55.725Z,101434.41
2023-05-08T23:17:22.859Z,101432.91
2023-05-08T23:19:50.139Z,101437.22
2023-05-08T23:22:17.359Z,101437.50
2023-05-08T23:24:44.448Z,101440.22
2023-05-08T23:27:12.056Z,101432.72
2023-05-08T23:29:39.202Z,101441.25
2023-05-08T23:32:06.330Z,101444.81
2023-05-08T23:34:33.429Z,101443.13
2023-05-08T23:37:02.152Z,101438.72
2023-05-08T23:39:29.200Z,101443.75
2023-05-08T23:41:56.321Z,101438.91
2023-05-08T23:44:23.495Z,101439.91
2023-05-08T23:46:50.691Z,101432.63
2023-05-08T23:49:17.910Z,101446.22
2023-05-08T23:51:45.799Z,101440.97
2023-05-08T23:54:14.120Z,101433.19
2023-05-08T23:56:41.438Z,101436.28
2023-05-08T23:59:08.513Z,101436.28
